sensor_id;sensor_type;location;lat;lon;timestamp;P1;durP1;ratioP1;P2;durP2;ratioP2
65835;SDS011;52595;51.608;7.216;2023-05-07T00:01:02;34.97;;;22.85;;
65835;SDS011;52595;51.608;7.216;2023-05-07T00:03:27;37.53;;;24.92;;
65835;SDS011;52595;51.608;7.216;2023-05-07T00:05:53;38.47;;;24.80;;
65835;SDS011;52595;51.608;7.216;2023-05-07T00:08:19;34.45;;;24.52;;
65835;SDS011;52595;51.608;7.216;2023-05-07T00:10:45;34.55;;;23.08;;
65835;SDS011;52595;51.608;7.216;2023-05-07T00:13:11;36.15;;;23.85;;
65835;SDS011;52595;51.608;7.216;2023-05-07T00:15:37;35.75;;;22.25;;
65835;SDS011;52595;51.608;7.216;2023-05-07T00:18:02;37.75;;;22.05;;
65835;SDS011;52595;51.608;7.216;2023-05-07T00:20:27;33.33;;;22.45;;
65835;SDS011;52595;51.608;7.216;2023-05-07T00:22:53;36.80;;;23.95;;
65835;SDS011;52595;51.608;7.216;2023-05-07T00:25:18;36.47;;;23.17;;
65835;SDS011;52595;51.608;7.216;2023-05-07T00:27:44;35.03;;;23.95;;
65835;SDS011;52595;51.608;7.216;2023-05-07T00:30:10;37.75;;;24.00;;
65835;SDS011;52595;51.608;7.216;2023-05-07T00:32:36;37.47;;;23.88;;
65835;SDS011;52595;51.608;7.216;2023-05-07T00:35:02;37.08;;;24.00;;
65835;SDS011;52595;51.608;7.216;2023-05-07T00:37:28;34.03;;;23.80;;
65835;SDS011;52595;51.608;7.216;2023-05-07T00:39:53;35.55;;;23.60;;
65835;SDS011;52595;51.608;7.216;2023-05-07T00:42:19;33.78;;;23.10;;
65835;SDS011;52595;51.608;7.216;2023-05-07T00:44:44;35.47;;;23.20;;
65835;SDS011;52595;51.608;7.216;2023-05-07T00:47:10;34.75;;;23.67;;
65835;SDS011;52595;51.608;7.216;2023-05-07T00:49:40;36.85;;;24.35;;
65835;SDS011;52595;51.608;7.216;2023-05-07T00:52:08;41.22;;;24.80;;
65835;SDS011;52595;51.608;7.216;2023-05-07T00:54:35;36.70;;;25.35;;
65835;SDS011;52595;51.608;7.216;2023-05-07T00:57:02;37.58;;;26.13;;
65835;SDS011;52595;51.608;7.216;2023-05-07T00:59:28;38.17;;;26.98;;
65835;SDS011;52595;51.608;7.216;2023-05-07T01:01:54;41.25;;;27.02;;
65835;SDS011;52595;51.608;7.216;2023-05-07T01:04:20;40.08;;;27.48;;
65835;SDS011;52595;51.608;7.216;2023-05-07T01:06:45;43.78;;;27.08;;
65835;SDS011;52595;51.608;7.216;2023-05-07T01:09:11;39.25;;;27.10;;
65835;SDS011;52595;51.608;7.216;2023-05-07T01:11:37;42.90;;;28.55;;
65835;SDS011;52595;51.608;7.216;2023-05-07T01:14:03;42.08;;;27.08;;
65835;SDS011;52595;51.608;7.216;2023-05-07T01:16:29;40.47;;;26.13;;
65835;SDS011;52595;51.608;7.216;2023-05-07T01:18:54;40.83;;;27.88;;
65835;SDS011;52595;51.608;7.216;2023-05-07T01:21:20;42.97;;;27.50;;
65835;SDS011;52595;51.608;7.216;2023-05-07T01:23:55;38.35;;;26.67;;
65835;SDS011;52595;51.608;7.216;2023-05-07T01:26:21;38.85;;;26.60;;
65835;SDS011;52595;51.608;7.216;2023-05-07T01:28:48;40.88;;;27.80;;
65835;SDS011;52595;51.608;7.216;2023-05-07T01:31:14;43.40;;;27.60;;
65835;SDS011;52595;51.608;7.216;2023-05-07T01:33:42;42.60;;;26.83;;
65835;SDS011;52595;51.608;7.216;2023-05-07T01:36:09;40.72;;;27.15;;
65835;SDS011;52595;51.608;7.216;2023-05-07T01:38:37;42.90;;;27.52;;
65835;SDS011;52595;51.608;7.216;2023-05-07T01:41:03;41.15;;;27.08;;
65835;SDS011;52595;51.608;7.216;2023-05-07T01:43:29;39.15;;;25.55;;
65835;SDS011;52595;51.608;7.216;2023-05-07T01:45:55;38.58;;;24.70;;
65835;SDS011;52595;51.608;7.216;2023-05-07T01:48:22;40.38;;;26.20;;
65835;SDS011;52595;51.608;7.216;2023-05-07T01:50:49;36.78;;;24.70;;
65835;SDS011;52595;51.608;7.216;2023-05-07T01:53:16;41.38;;;24.90;;
65835;SDS011;52595;51.608;7.216;2023-05-07T01:55:41;37.15;;;25.38;;
65835;SDS011;52595;51.608;7.216;2023-05-07T01:58:07;36.53;;;24.70;;
65835;SDS011;52595;51.608;7.216;2023-05-07T02:00:32;39.80;;;25.17;;
65835;SDS011;52595;51.608;7.216;2023-05-07T02:02:57;37.65;;;24.77;;
65835;SDS011;52595;51.608;7.216;2023-05-07T02:05:23;34.97;;;23.80;;
65835;SDS011;52595;51.608;7.216;2023-05-07T02:07:49;35.75;;;25.15;;
65835;SDS011;52595;51.608;7.216;2023-05-07T02:10:14;37.63;;;24.77;;
65835;SDS011;52595;51.608;7.216;2023-05-07T02:12:40;42.10;;;25.10;;
65835;SDS011;52595;51.608;7.216;2023-05-07T02:15:05;36.58;;;24.88;;
65835;SDS011;52595;51.608;7.216;2023-05-07T02:17:31;44.78;;;25.63;;
65835;SDS011;52595;51.608;7.216;2023-05-07T02:19:58;37.55;;;24.15;;
65835;SDS011;52595;51.608;7.216;2023-05-07T02:22:23;39.92;;;25.58;;
65835;SDS011;52595;51.608;7.216;2023-05-07T02:24:49;35.70;;;24.33;;
65835;SDS011;52595;51.608;7.216;2023-05-07T02:27:14;37.70;;;24.83;;
65835;SDS011;52595;51.608;7.216;2023-05-07T02:29:39;36.40;;;24.85;;
65835;SDS011;52595;51.608;7.216;2023-05-07T02:32:05;38.35;;;25.60;;
65835;SDS011;52595;51.608;7.216;2023-05-07T02:34:30;36.30;;;24.85;;
65835;SDS011;52595;51.608;7.216;2023-05-07T02:36:56;36.25;;;24.35;;
65835;SDS011;52595;51.608;7.216;2023-05-07T02:39:21;34.95;;;24.13;;
65835;SDS011;52595;51.608;7.216;2023-05-07T02:41:47;38.42;;;25.90;;
65835;SDS011;52595;51.608;7.216;2023-05-07T02:44:12;39.05;;;25.50;;
65835;SDS011;52595;51.608;7.216;2023-05-07T02:46:37;37.35;;;25.42;;
65835;SDS011;52595;51.608;7.216;2023-05-07T02:49:03;39.67;;;25.23;;
65835;SDS011;52595;51.608;7.216;2023-05-07T02:51:29;39.08;;;24.30;;
65835;SDS011;52595;51.608;7.216;2023-05-07T02:53:55;36.72;;;25.67;;
65835;SDS011;52595;51.608;7.216;2023-05-07T02:56:21;36.53;;;24.85;;
65835;SDS011;52595;51.608;7.216;2023-05-07T02:58:46;40.13;;;26.33;;
65835;SDS011;52595;51.608;7.216;2023-05-07T03:01:12;38.08;;;24.60;;
65835;SDS011;52595;51.608;7.216;2023-05-07T03:03:39;35.35;;;24.35;;
65835;SDS011;52595;51.608;7.216;2023-05-07T03:06:04;36.10;;;24.40;;
65835;SDS011;52595;51.608;7.216;2023-05-07T03:08:30;35.33;;;24.25;;
65835;SDS011;52595;51.608;7.216;2023-05-07T03:10:56;35.00;;;24.15;;
65835;SDS011;52595;51.608;7.216;2023-05-07T03:13:21;38.63;;;23.92;;
65835;SDS011;52595;51.608;7.216;2023-05-07T03:15:46;35.10;;;24.00;;
65835;SDS011;52595;51.608;7.216;2023-05-07T03:18:12;37.10;;;24.67;;
65835;SDS011;52595;51.608;7.216;2023-05-07T03:20:37;34.42;;;24.45;;
65835;SDS011;52595;51.608;7.216;2023-05-07T03:23:03;35.70;;;24.80;;
65835;SDS011;52595;51.608;7.216;2023-05-07T03:25:28;38.20;;;25.10;;
65835;SDS011;52595;51.608;7.216;2023-05-07T03:27:55;41.17;;;24.00;;
65835;SDS011;52595;51.608;7.216;2023-05-07T03:30:21;35.88;;;24.25;;
65835;SDS011;52595;51.608;7.216;2023-05-07T03:32:46;31.40;;;22.27;;
65835;SDS011;52595;51.608;7.216;2023-05-07T03:35:11;36.25;;;23.38;;
65835;SDS011;52595;51.608;7.216;2023-05-07T03:37:37;35.53;;;24.48;;
65835;SDS011;52595;51.608;7.216;2023-05-07T03:40:03;36.38;;;23.38;;
65835;SDS011;52595;51.608;7.216;2023-05-07T03:42:30;32.72;;;23.00;;
65835;SDS011;52595;51.608;7.216;2023-05-07T03:44:55;36.28;;;24.20;;
65835;SDS011;52595;51.608;7.216;2023-05-07T03:47:21;35.70;;;24.90;;
65835;SDS011;52595;51.608;7.216;2023-05-07T03:49:46;33.92;;;23.15;;
65835;SDS011;52595;51.608;7.216;2023-05-07T03:52:13;33.92;;;23.67;;
65835;SDS011;52595;51.608;7.216;2023-05-07T03:54:38;35.67;;;24.13;;
65835;SDS011;52595;51.608;7.216;2023-05-07T03:57:04;32.33;;;22.30;;
65835;SDS011;52595;51.608;7.216;2023-05-07T03:59:29;32.85;;;22.83;;
65835;SDS011;52595;51.608;7.216;2023-05-07T04:01:54;31.85;;;23.38;;
65835;SDS011;52595;51.608;7.216;2023-05-07T04:04:20;34.55;;;23.10;;
65835;SDS011;52595;51.608;7.216;2023-05-07T04:06:46;34.28;;;23.75;;
65835;SDS011;52595;51.608;7.216;2023-05-07T04:09:11;32.17;;;22.63;;
65835;SDS011;52595;51.608;7.216;2023-05-07T04:11:37;33.45;;;22.60;;
65835;SDS011;52595;51.608;7.216;2023-05-07T04:14:02;32.65;;;22.95;;
65835;SDS011;52595;51.608;7.216;2023-05-07T04:16:27;33.55;;;23.42;;
65835;SDS011;52595;51.608;7.216;2023-05-07T04:18:53;34.78;;;24.05;;
65835;SDS011;52595;51.608;7.216;2023-05-07T04:21:19;31.65;;;22.27;;
65835;SDS011;52595;51.608;7.216;2023-05-07T04:23:46;32.38;;;22.27;;
65835;SDS011;52595;51.608;7.216;2023-05-07T04:26:11;33.17;;;22.60;;
65835;SDS011;52595;51.608;7.216;2023-05-07T04:28:37;33.22;;;22.58;;
65835;SDS011;52595;51.608;7.216;2023-05-07T04:31:04;33.47;;;22.05;;
65835;SDS011;52595;51.608;7.216;2023-05-07T04:33:29;33.97;;;23.45;;
65835;SDS011;52595;51.608;7.216;2023-05-07T04:35:55;31.35;;;21.55;;
65835;SDS011;52595;51.608;7.216;2023-05-07T04:38:20;29.67;;;21.73;;
65835;SDS011;52595;51.608;7.216;2023-05-07T04:40:46;30.58;;;21.15;;
65835;SDS011;52595;51.608;7.216;2023-05-07T04:43:11;29.42;;;20.65;;
65835;SDS011;52595;51.608;7.216;2023-05-07T04:45:38;27.80;;;20.13;;
65835;SDS011;52595;51.608;7.216;2023-05-07T04:48:06;29.23;;;20.17;;
65835;SDS011;52595;51.608;7.216;2023-05-07T04:50:31;30.45;;;21.60;;
65835;SDS011;52595;51.608;7.216;2023-05-07T04:52:57;28.90;;;20.25;;
65835;SDS011;52595;51.608;7.216;2023-05-07T04:55:22;29.08;;;20.13;;
65835;SDS011;52595;51.608;7.216;2023-05-07T04:57:47;26.08;;;19.45;;
65835;SDS011;52595;51.608;7.216;2023-05-07T05:00:13;28.20;;;19.73;;
65835;SDS011;52595;51.608;7.216;2023-05-07T05:02:44;28.98;;;19.17;;
65835;SDS011;52595;51.608;7.216;2023-05-07T05:05:10;25.63;;;18.83;;
65835;SDS011;52595;51.608;7.216;2023-05-07T05:07:35;27.38;;;18.55;;
65835;SDS011;52595;51.608;7.216;2023-05-07T05:10:01;25.63;;;17.73;;
65835;SDS011;52595;51.608;7.216;2023-05-07T05:12:27;28.67;;;18.38;;
65835;SDS011;52595;51.608;7.216;2023-05-07T05:14:54;25.63;;;17.58;;
65835;SDS011;52595;51.608;7.216;2023-05-07T05:17:19;28.48;;;17.90;;
65835;SDS011;52595;51.608;7.216;2023-05-07T05:19:45;26.88;;;17.13;;
65835;SDS011;52595;51.608;7.216;2023-05-07T05:22:10;27.20;;;18.02;;
65835;SDS011;52595;51.608;7.216;2023-05-07T05:24:36;24.15;;;16.95;;
65835;SDS011;52595;51.608;7.216;2023-05-07T05:27:01;26.13;;;16.98;;
65835;SDS011;52595;51.608;7.216;2023-05-07T05:29:27;25.30;;;17.00;;
65835;SDS011;52595;51.608;7.216;2023-05-07T05:31:52;23.02;;;17.15;;
65835;SDS011;52595;51.608;7.216;2023-05-07T05:34:17;25.63;;;17.77;;
65835;SDS011;52595;51.608;7.216;2023-05-07T05:36:44;28.35;;;16.98;;
65835;SDS011;52595;51.608;7.216;2023-05-07T05:39:10;24.15;;;17.00;;
65835;SDS011;52595;51.608;7.216;2023-05-07T05:41:35;26.92;;;17.50;;
65835;SDS011;52595;51.608;7.216;2023-05-07T05:44:01;25.67;;;16.83;;
65835;SDS011;52595;51.608;7.216;2023-05-07T05:46:26;25.60;;;16.75;;
65835;SDS011;52595;51.608;7.216;2023-05-07T05:48:51;23.40;;;16.52;;
65835;SDS011;52595;51.608;7.216;2023-05-07T05:51:17;26.17;;;17.08;;
65835;SDS011;52595;51.608;7.216;2023-05-07T05:53:42;23.45;;;16.33;;
65835;SDS011;52595;51.608;7.216;2023-05-07T05:56:08;23.65;;;16.17;;
65835;SDS011;52595;51.608;7.216;2023-05-07T05:58:33;25.77;;;17.02;;
65835;SDS011;52595;51.608;7.216;2023-05-07T06:00:59;27.70;;;17.00;;
65835;SDS011;52595;51.608;7.216;2023-05-07T06:03:25;23.23;;;16.67;;
65835;SDS011;52595;51.608;7.216;2023-05-07T06:05:51;24.88;;;16.10;;
65835;SDS011;52595;51.608;7.216;2023-05-07T06:08:16;26.27;;;16.13;;
65835;SDS011;52595;51.608;7.216;2023-05-07T06:10:42;22.50;;;16.13;;
65835;SDS011;52595;51.608;7.216;2023-05-07T06:13:07;22.60;;;15.63;;
65835;SDS011;52595;51.608;7.216;2023-05-07T06:15:33;22.95;;;15.20;;
65835;SDS011;52595;51.608;7.216;2023-05-07T06:17:58;20.52;;;14.55;;
65835;SDS011;52595;51.608;7.216;2023-05-07T06:20:23;20.30;;;14.27;;
65835;SDS011;52595;51.608;7.216;2023-05-07T06:22:49;17.67;;;13.20;;
65835;SDS011;52595;51.608;7.216;2023-05-07T06:25:14;18.17;;;12.77;;
65835;SDS011;52595;51.608;7.216;2023-05-07T06:27:40;16.17;;;12.05;;
65835;SDS011;52595;51.608;7.216;2023-05-07T06:30:05;15.70;;;11.35;;
65835;SDS011;52595;51.608;7.216;2023-05-07T06:32:31;16.30;;;11.32;;
65835;SDS011;52595;51.608;7.216;2023-05-07T06:34:57;17.00;;;11.38;;
65835;SDS011;52595;51.608;7.216;2023-05-07T06:37:22;19.67;;;11.32;;
65835;SDS011;52595;51.608;7.216;2023-05-07T06:39:48;15.20;;;11.07;;
65835;SDS011;52595;51.608;7.216;2023-05-07T06:42:13;16.63;;;11.32;;
65835;SDS011;52595;51.608;7.216;2023-05-07T06:44:38;16.40;;;11.43;;
65835;SDS011;52595;51.608;7.216;2023-05-07T06:47:04;18.88;;;11.75;;
65835;SDS011;52595;51.608;7.216;2023-05-07T06:49:30;17.05;;;12.07;;
65835;SDS011;52595;51.608;7.216;2023-05-07T06:51:56;17.13;;;11.40;;
65835;SDS011;52595;51.608;7.216;2023-05-07T06:54:22;18.35;;;11.32;;
65835;SDS011;52595;51.608;7.216;2023-05-07T06:56:47;17.60;;;10.90;;
65835;SDS011;52595;51.608;7.216;2023-05-07T06:59:13;14.95;;;11.07;;
65835;SDS011;52595;51.608;7.216;2023-05-07T07:01:38;15.95;;;11.02;;
65835;SDS011;52595;51.608;7.216;2023-05-07T07:04:03;20.20;;;11.60;;
65835;SDS011;52595;51.608;7.216;2023-05-07T07:06:29;16.70;;;11.30;;
65835;SDS011;52595;51.608;7.216;2023-05-07T07:08:56;15.88;;;10.82;;
65835;SDS011;52595;51.608;7.216;2023-05-07T07:11:22;16.88;;;10.88;;
65835;SDS011;52595;51.608;7.216;2023-05-07T07:13:47;13.65;;;10.27;;
65835;SDS011;52595;51.608;7.216;2023-05-07T07:16:13;16.38;;;10.93;;
65835;SDS011;52595;51.608;7.216;2023-05-07T07:18:38;16.55;;;10.80;;
65835;SDS011;52595;51.608;7.216;2023-05-07T07:21:04;15.90;;;10.57;;
65835;SDS011;52595;51.608;7.216;2023-05-07T07:23:29;16.23;;;10.32;;
65835;SDS011;52595;51.608;7.216;2023-05-07T07:25:54;16.70;;;10.63;;
65835;SDS011;52595;51.608;7.216;2023-05-07T07:28:20;18.58;;;11.65;;
65835;SDS011;52595;51.608;7.216;2023-05-07T07:30:46;17.50;;;10.95;;
65835;SDS011;52595;51.608;7.216;2023-05-07T07:33:12;15.27;;;10.77;;
65835;SDS011;52595;51.608;7.216;2023-05-07T07:35:37;16.10;;;10.85;;
65835;SDS011;52595;51.608;7.216;2023-05-07T07:38:03;16.48;;;10.93;;
65835;SDS011;52595;51.608;7.216;2023-05-07T07:40:28;14.60;;;10.32;;
65835;SDS011;52595;51.608;7.216;2023-05-07T07:42:54;17.48;;;11.05;;
65835;SDS011;52595;51.608;7.216;2023-05-07T07:45:19;17.85;;;11.38;;
65835;SDS011;52595;51.608;7.216;2023-05-07T07:47:45;17.77;;;11.23;;
65835;SDS011;52595;51.608;7.216;2023-05-07T07:50:11;15.88;;;11.82;;
65835;SDS011;52595;51.608;7.216;2023-05-07T07:52:36;17.90;;;12.38;;
65835;SDS011;52595;51.608;7.216;2023-05-07T07:55:02;16.40;;;11.48;;
65835;SDS011;52595;51.608;7.216;2023-05-07T07:57:28;14.50;;;10.90;;
65835;SDS011;52595;51.608;7.216;2023-05-07T07:59:53;15.18;;;10.90;;
65835;SDS011;52595;51.608;7.216;2023-05-07T08:02:19;16.45;;;11.20;;
65835;SDS011;52595;51.608;7.216;2023-05-07T08:04:44;16.35;;;10.75;;
65835;SDS011;52595;51.608;7.216;2023-05-07T08:07:10;14.00;;;10.60;;
65835;SDS011;52595;51.608;7.216;2023-05-07T08:09:39;15.70;;;11.07;;
65835;SDS011;52595;51.608;7.216;2023-05-07T08:12:06;17.10;;;11.45;;
65835;SDS011;52595;51.608;7.216;2023-05-07T08:14:32;15.85;;;11.48;;
65835;SDS011;52595;51.608;7.216;2023-05-07T08:16:58;16.25;;;11.77;;
65835;SDS011;52595;51.608;7.216;2023-05-07T08:19:23;15.55;;;10.77;;
65835;SDS011;52595;51.608;7.216;2023-05-07T08:21:49;15.40;;;11.32;;
65835;SDS011;52595;51.608;7.216;2023-05-07T08:24:15;14.85;;;10.90;;
65835;SDS011;52595;51.608;7.216;2023-05-07T08:26:41;14.85;;;10.70;;
65835;SDS011;52595;51.608;7.216;2023-05-07T08:29:06;14.52;;;10.77;;
65835;SDS011;52595;51.608;7.216;2023-05-07T08:31:32;17.83;;;10.75;;
65835;SDS011;52595;51.608;7.216;2023-05-07T08:33:58;12.88;;;10.10;;
65835;SDS011;52595;51.608;7.216;2023-05-07T08:36:24;13.13;;;10.05;;
65835;SDS011;52595;51.608;7.216;2023-05-07T08:38:51;14.25;;;10.25;;
65835;SDS011;52595;51.608;7.216;2023-05-07T08:41:16;14.00;;;10.90;;
65835;SDS011;52595;51.608;7.216;2023-05-07T08:43:42;15.32;;;10.38;;
65835;SDS011;52595;51.608;7.216;2023-05-07T08:46:18;13.05;;;10.30;;
65835;SDS011;52595;51.608;7.216;2023-05-07T08:48:48;14.70;;;10.70;;
65835;SDS011;52595;51.608;7.216;2023-05-07T08:51:18;15.77;;;10.68;;
65835;SDS011;52595;51.608;7.216;2023-05-07T08:56:13;15.73;;;10.23;;
65835;SDS011;52595;51.608;7.216;2023-05-07T08:58:40;13.50;;;10.45;;
65835;SDS011;52595;51.608;7.216;2023-05-07T09:01:08;13.68;;;10.60;;
65835;SDS011;52595;51.608;7.216;2023-05-07T09:03:37;14.90;;;10.93;;
65835;SDS011;52595;51.608;7.216;2023-05-07T09:06:03;12.95;;;10.35;;
65835;SDS011;52595;51.608;7.216;2023-05-07T09:08:28;12.73;;;10.52;;
65835;SDS011;52595;51.608;7.216;2023-05-07T09:10:54;14.05;;;10.43;;
65835;SDS011;52595;51.608;7.216;2023-05-07T09:13:19;15.02;;;9.98;;
65835;SDS011;52595;51.608;7.216;2023-05-07T09:15:45;13.68;;;10.70;;
65835;SDS011;52595;51.608;7.216;2023-05-07T09:18:11;13.55;;;10.70;;
65835;SDS011;52595;51.608;7.216;2023-05-07T09:20:37;14.50;;;10.65;;
65835;SDS011;52595;51.608;7.216;2023-05-07T09:23:03;13.32;;;10.80;;
65835;SDS011;52595;51.608;7.216;2023-05-07T09:25:29;13.95;;;11.23;;
65835;SDS011;52595;51.608;7.216;2023-05-07T09:27:55;13.23;;;11.13;;
65835;SDS011;52595;51.608;7.216;2023-05-07T09:30:20;13.38;;;10.90;;
65835;SDS011;52595;51.608;7.216;2023-05-07T09:32:46;13.25;;;11.20;;
65835;SDS011;52595;51.608;7.216;2023-05-07T09:35:17;14.13;;;10.60;;
65835;SDS011;52595;51.608;7.216;2023-05-07T09:37:43;14.60;;;10.80;;
65835;SDS011;52595;51.608;7.216;2023-05-07T09:40:10;15.18;;;10.20;;
65835;SDS011;52595;51.608;7.216;2023-05-07T09:42:49;11.00;;;9.52;;
65835;SDS011;52595;51.608;7.216;2023-05-07T09:45:36;11.52;;;9.80;;
65835;SDS011;52595;51.608;7.216;2023-05-07T09:48:01;13.85;;;9.68;;
65835;SDS011;52595;51.608;7.216;2023-05-07T09:50:39;13.52;;;9.60;;
65835;SDS011;52595;51.608;7.216;2023-05-07T09:53:10;20.33;;;11.00;;
65835;SDS011;52595;51.608;7.216;2023-05-07T09:55:36;14.00;;;10.98;;
65835;SDS011;52595;51.608;7.216;2023-05-07T09:58:02;13.88;;;10.82;;
65835;SDS011;52595;51.608;7.216;2023-05-07T10:00:30;11.55;;;9.55;;
65835;SDS011;52595;51.608;7.216;2023-05-07T10:02:56;15.10;;;10.70;;
65835;SDS011;52595;51.608;7.216;2023-05-07T10:05:23;12.60;;;9.95;;
65835;SDS011;52595;51.608;7.216;2023-05-07T10:07:50;12.85;;;9.75;;
65835;SDS011;52595;51.608;7.216;2023-05-07T10:10:15;14.85;;;10.30;;
65835;SDS011;52595;51.608;7.216;2023-05-07T10:12:42;14.20;;;10.77;;
65835;SDS011;52595;51.608;7.216;2023-05-07T10:15:08;13.32;;;9.85;;
65835;SDS011;52595;51.608;7.216;2023-05-07T10:17:38;11.35;;;9.23;;
65835;SDS011;52595;51.608;7.216;2023-05-07T10:20:05;13.15;;;9.10;;
65835;SDS011;52595;51.608;7.216;2023-05-07T10:22:34;13.35;;;10.10;;
65835;SDS011;52595;51.608;7.216;2023-05-07T10:25:03;11.75;;;9.50;;
65835;SDS011;52595;51.608;7.216;2023-05-07T10:27:34;11.02;;;9.27;;
65835;SDS011;52595;51.608;7.216;2023-05-07T10:30:12;11.60;;;8.82;;
65835;SDS011;52595;51.608;7.216;2023-05-07T10:32:56;15.43;;;9.10;;
65835;SDS011;52595;51.608;7.216;2023-05-07T10:35:31;11.65;;;8.60;;
65835;SDS011;52595;51.608;7.216;2023-05-07T10:38:01;12.27;;;8.10;;
65835;SDS011;52595;51.608;7.216;2023-05-07T10:40:27;11.02;;;8.40;;
65835;SDS011;52595;51.608;7.216;2023-05-07T10:45:25;10.32;;;7.78;;
65835;SDS011;52595;51.608;7.216;2023-05-07T10:48:10;13.13;;;8.07;;
65835;SDS011;52595;51.608;7.216;2023-05-07T10:50:40;11.48;;;7.65;;
65835;SDS011;52595;51.608;7.216;2023-05-07T10:53:20;12.75;;;8.95;;
65835;SDS011;52595;51.608;7.216;2023-05-07T10:55:50;12.50;;;9.63;;
65835;SDS011;52595;51.608;7.216;2023-05-07T10:58:26;11.98;;;9.23;;
65835;SDS011;52595;51.608;7.216;2023-05-07T11:00:57;14.63;;;9.75;;
65835;SDS011;52595;51.608;7.216;2023-05-07T11:03:25;11.63;;;9.27;;
65835;SDS011;52595;51.608;7.216;2023-05-07T11:17:19;11.75;;;8.55;;
65835;SDS011;52595;51.608;7.216;2023-05-07T11:19:51;12.02;;;8.63;;
65835;SDS011;52595;51.608;7.216;2023-05-07T11:25:02;8.60;;;6.20;;
65835;SDS011;52595;51.608;7.216;2023-05-07T11:27:28;8.80;;;5.93;;
65835;SDS011;52595;51.608;7.216;2023-05-07T11:29:54;9.73;;;6.03;;
65835;SDS011;52595;51.608;7.216;2023-05-07T11:32:23;8.93;;;6.85;;
65835;SDS011;52595;51.608;7.216;2023-05-07T11:34:53;8.00;;;6.32;;
65835;SDS011;52595;51.608;7.216;2023-05-07T11:37:20;9.95;;;5.95;;
65835;SDS011;52595;51.608;7.216;2023-05-07T11:39:47;8.65;;;6.28;;
65835;SDS011;52595;51.608;7.216;2023-05-07T11:44:59;8.63;;;6.32;;
65835;SDS011;52595;51.608;7.216;2023-05-07T11:47:25;10.15;;;7.18;;
65835;SDS011;52595;51.608;7.216;2023-05-07T11:49:51;8.13;;;6.75;;
65835;SDS011;52595;51.608;7.216;2023-05-07T11:52:18;10.73;;;7.53;;
65835;SDS011;52595;51.608;7.216;2023-05-07T11:55:03;9.68;;;7.63;;
65835;SDS011;52595;51.608;7.216;2023-05-07T11:57:29;10.25;;;7.50;;
65835;SDS011;52595;51.608;7.216;2023-05-07T12:02:23;8.27;;;6.97;;
65835;SDS011;52595;51.608;7.216;2023-05-07T12:04:50;8.63;;;7.40;;
65835;SDS011;52595;51.608;7.216;2023-05-07T12:07:15;8.52;;;6.45;;
65835;SDS011;52595;51.608;7.216;2023-05-07T12:09:42;8.82;;;6.63;;
65835;SDS011;52595;51.608;7.216;2023-05-07T12:12:08;9.60;;;7.75;;
65835;SDS011;52595;51.608;7.216;2023-05-07T12:14:39;9.80;;;8.00;;
65835;SDS011;52595;51.608;7.216;2023-05-07T12:17:05;11.57;;;8.10;;
65835;SDS011;52595;51.608;7.216;2023-05-07T12:19:32;11.23;;;8.27;;
65835;SDS011;52595;51.608;7.216;2023-05-07T12:21:58;10.05;;;7.40;;
65835;SDS011;52595;51.608;7.216;2023-05-07T12:24:24;23.10;;;6.97;;
65835;SDS011;52595;51.608;7.216;2023-05-07T12:26:49;9.25;;;6.72;;
65835;SDS011;52595;51.608;7.216;2023-05-07T12:29:15;9.15;;;7.43;;
65835;SDS011;52595;51.608;7.216;2023-05-07T12:31:41;8.95;;;6.93;;
65835;SDS011;52595;51.608;7.216;2023-05-07T12:34:07;8.68;;;6.78;;
65835;SDS011;52595;51.608;7.216;2023-05-07T12:36:39;9.57;;;7.30;;
65835;SDS011;52595;51.608;7.216;2023-05-07T12:39:08;10.00;;;7.20;;
65835;SDS011;52595;51.608;7.216;2023-05-07T12:41:53;9.07;;;6.53;;
65835;SDS011;52595;51.608;7.216;2023-05-07T12:44:21;10.35;;;6.50;;
65835;SDS011;52595;51.608;7.216;2023-05-07T12:46:47;10.40;;;6.80;;
65835;SDS011;52595;51.608;7.216;2023-05-07T12:49:13;9.23;;;7.78;;
65835;SDS011;52595;51.608;7.216;2023-05-07T12:51:38;10.80;;;8.07;;
65835;SDS011;52595;51.608;7.216;2023-05-07T12:54:04;10.32;;;7.75;;
65835;SDS011;52595;51.608;7.216;2023-05-07T12:56:35;10.57;;;7.45;;
65835;SDS011;52595;51.608;7.216;2023-05-07T12:59:01;12.57;;;7.63;;
65835;SDS011;52595;51.608;7.216;2023-05-07T13:01:30;11.40;;;8.10;;
65835;SDS011;52595;51.608;7.216;2023-05-07T13:03:57;9.50;;;7.75;;
65835;SDS011;52595;51.608;7.216;2023-05-07T13:06:25;9.75;;;7.20;;
65835;SDS011;52595;51.608;7.216;2023-05-07T13:08:51;9.02;;;7.32;;
65835;SDS011;52595;51.608;7.216;2023-05-07T13:11:16;8.82;;;7.22;;
65835;SDS011;52595;51.608;7.216;2023-05-07T13:13:42;8.68;;;7.03;;
65835;SDS011;52595;51.608;7.216;2023-05-07T13:16:08;9.45;;;6.80;;
65835;SDS011;52595;51.608;7.216;2023-05-07T13:18:35;11.18;;;7.30;;
65835;SDS011;52595;51.608;7.216;2023-05-07T13:21:01;9.82;;;7.88;;
65835;SDS011;52595;51.608;7.216;2023-05-07T13:23:27;9.82;;;7.40;;
65835;SDS011;52595;51.608;7.216;2023-05-07T13:25:53;8.88;;;7.10;;
65835;SDS011;52595;51.608;7.216;2023-05-07T13:28:19;9.45;;;7.65;;
65835;SDS011;52595;51.608;7.216;2023-05-07T13:30:45;11.05;;;7.88;;
65835;SDS011;52595;51.608;7.216;2023-05-07T13:33:11;10.73;;;7.78;;
65835;SDS011;52595;51.608;7.216;2023-05-07T13:35:36;9.68;;;7.30;;
65835;SDS011;52595;51.608;7.216;2023-05-07T13:38:02;9.85;;;7.68;;
65835;SDS011;52595;51.608;7.216;2023-05-07T13:40:28;15.25;;;7.57;;
65835;SDS011;52595;51.608;7.216;2023-05-07T13:42:53;9.68;;;6.85;;
65835;SDS011;52595;51.608;7.216;2023-05-07T13:45:19;9.75;;;7.25;;
65835;SDS011;52595;51.608;7.216;2023-05-07T13:47:45;15.15;;;7.47;;
65835;SDS011;52595;51.608;7.216;2023-05-07T13:50:11;9.38;;;7.07;;
65835;SDS011;52595;51.608;7.216;2023-05-07T13:52:39;10.75;;;7.88;;
65835;SDS011;52595;51.608;7.216;2023-05-07T13:55:06;13.45;;;7.85;;
65835;SDS011;52595;51.608;7.216;2023-05-07T13:57:32;9.48;;;7.50;;
65835;SDS011;52595;51.608;7.216;2023-05-07T13:59:57;11.25;;;7.88;;
65835;SDS011;52595;51.608;7.216;2023-05-07T14:02:23;9.52;;;7.47;;
65835;SDS011;52595;51.608;7.216;2023-05-07T14:04:48;10.40;;;7.30;;
65835;SDS011;52595;51.608;7.216;2023-05-07T14:07:13;9.75;;;7.03;;
65835;SDS011;52595;51.608;7.216;2023-05-07T14:09:39;8.63;;;6.68;;
65835;SDS011;52595;51.608;7.216;2023-05-07T14:12:04;9.88;;;7.10;;
65835;SDS011;52595;51.608;7.216;2023-05-07T14:14:30;10.32;;;6.47;;
65835;SDS011;52595;51.608;7.216;2023-05-07T14:16:55;8.45;;;6.57;;
65835;SDS011;52595;51.608;7.216;2023-05-07T14:19:21;9.23;;;6.88;;
65835;SDS011;52595;51.608;7.216;2023-05-07T14:21:47;8.45;;;6.15;;
65835;SDS011;52595;51.608;7.216;2023-05-07T14:24:13;9.20;;;6.50;;
65835;SDS011;52595;51.608;7.216;2023-05-07T14:26:39;10.73;;;6.43;;
65835;SDS011;52595;51.608;7.216;2023-05-07T14:29:04;8.95;;;6.20;;
65835;SDS011;52595;51.608;7.216;2023-05-07T14:31:30;7.70;;;5.90;;
65835;SDS011;52595;51.608;7.216;2023-05-07T14:33:55;7.20;;;5.72;;
65835;SDS011;52595;51.608;7.216;2023-05-07T14:36:22;9.40;;;6.28;;
65835;SDS011;52595;51.608;7.216;2023-05-07T14:38:51;8.80;;;6.25;;
65835;SDS011;52595;51.608;7.216;2023-05-07T14:41:18;9.05;;;5.90;;
65835;SDS011;52595;51.608;7.216;2023-05-07T14:43:44;7.43;;;5.80;;
65835;SDS011;52595;51.608;7.216;2023-05-07T14:48:44;7.20;;;5.22;;
65835;SDS011;52595;51.608;7.216;2023-05-07T14:51:10;8.45;;;6.50;;